createdAt,value
2017-11-03T00:01:54.037Z,70.20
2017-11-03T00:04:20.342Z,70.50
2017-11-03T00:06:46.603Z,70.30
2017-11-03T00:09:12.878Z,70.20
2017-11-03T00:11:39.158Z,70.30
2017-11-03T00:14:05.422Z,70.80
2017-11-03T00:16:32.423Z,70.70
2017-11-03T00:18:58.710Z,70.60
2017-11-03T00:21:25.746Z,70.80
2017-11-03T00:23:52.058Z,70.80
2017-11-03T00:26:19.177Z,71.20
2017-11-03T00:28:45.542Z,71.20
2017-11-03T00:31:12.614Z,70.10
2017-11-03T00:33:38.909Z,70.10
2017-11-03T00:36:05.194Z,70.00
2017-11-03T00:38:31.482Z,70.20
2017-11-03T00:40:57.770Z,70.10
2017-11-03T00:43:24.062Z,69.90
2017-11-03T00:45:50.346Z,70.10
2017-11-03T00:48:16.624Z,70.00
2017-11-03T00:50:42.891Z,70.00
2017-11-03T00:53:09.174Z,70.20
2017-11-03T00:55:35.465Z,70.20
2017-11-03T00:58:02.596Z,69.60
2017-11-03T01:00:28.895Z,69.60
2017-11-03T01:02:55.218Z,69.80
2017-11-03T01:05:21.535Z,70.00
2017-11-03T01:07:48.555Z,69.70
2017-11-03T01:10:14.821Z,69.70
2017-11-03T01:12:41.096Z,69.90
2017-11-03T01:15:07.382Z,69.90
2017-11-03T01:17:33.662Z,69.90
2017-11-03T01:20:00.678Z,69.80
2017-11-03T01:22:26.783Z,69.70
2017-11-03T01:24:53.090Z,69.80
2017-11-03T01:27:19.502Z,69.70
2017-11-03T01:29:45.791Z,69.90
2017-11-03T01:32:12.076Z,70.00
2017-11-03T01:34:38.420Z,70.50
2017-11-03T01:37:04.859Z,70.50
2017-11-03T01:39:31.145Z,70.30
2017-11-03T01:41:58.164Z,70.30
2017-11-03T01:44:24.467Z,70.20
2017-11-03T01:46:50.761Z,71.10
2017-11-03T01:49:17.066Z,70.90
2017-11-03T01:51:43.363Z,71.70
2017-11-03T01:54:09.665Z,71.50
2017-11-03T01:56:35.962Z,71.40
2017-11-03T01:59:02.994Z,72.20
2017-11-03T02:01:29.304Z,72.20
2017-11-03T02:03:55.586Z,72.30
2017-11-03T02:06:21.899Z,72.60
2017-11-03T02:08:48.222Z,72.70
2017-11-03T02:11:15.258Z,72.80
2017-11-03T02:13:42.302Z,71.60
2017-11-03T02:16:09.406Z,72.50
2017-11-03T02:18:35.506Z,72.80
2017-11-03T02:21:01.796Z,71.10
2017-11-03T02:23:28.094Z,70.80
2017-11-03T02:25:54.380Z,70.20
2017-11-03T02:28:21.414Z,70.80
2017-11-03T02:30:47.699Z,71.10
2017-11-03T02:33:14.042Z,70.80
2017-11-03T02:35:40.862Z,70.60
2017-11-03T02:38:07.219Z,70.20
2017-11-03T02:40:33.475Z,70.10
2017-11-03T02:43:00.766Z,70.10
2017-11-03T02:45:27.052Z,70.00
2017-11-03T02:47:54.071Z,71.10
2017-11-03T02:50:20.441Z,70.90
2017-11-03T02:52:46.730Z,70.60
2017-11-03T02:55:13.020Z,70.80
2017-11-03T02:57:39.378Z,71.30
2017-11-03T03:00:06.426Z,71.00
2017-11-03T03:02:32.702Z,71.00
2017-11-03T03:04:58.987Z,71.30
2017-11-03T03:07:25.287Z,71.00
2017-11-03T03:09:51.574Z,71.00
2017-11-03T03:12:17.869Z,70.60
2017-11-03T03:14:44.951Z,70.90
2017-11-03T03:17:11.265Z,70.90
2017-11-03T03:19:37.566Z,70.90
2017-11-03T03:22:03.833Z,71.70
2017-11-03T03:24:30.879Z,72.20
2017-11-03T03:26:57.263Z,72.20
2017-11-03T03:29:23.554Z,71.60
2017-11-03T03:31:50.616Z,70.90
2017-11-03T03:34:16.901Z,70.90
2017-11-03T03:36:43.190Z,71.40
2017-11-03T03:39:09.472Z,71.30
2017-11-03T03:41:36.515Z,71.10
2017-11-03T03:44:03.557Z,73.50
2017-11-03T03:46:30.599Z,73.90
2017-11-03T03:48:57.625Z,72.90
2017-11-03T03:51:23.713Z,72.90
2017-11-03T03:53:50.003Z,72.60
2017-11-03T03:56:16.316Z,71.50
2017-11-03T03:58:43.343Z,70.80
2017-11-03T04:01:09.608Z,70.80
2017-11-03T04:03:36.641Z,70.80
2017-11-03T04:06:02.732Z,70.80
2017-11-03T04:08:29.031Z,71.70
2017-11-03T04:10:55.309Z,71.80
2017-11-03T04:13:21.600Z,71.20
2017-11-03T04:15:47.883Z,70.90
2017-11-03T04:18:14.919Z,70.00
2017-11-03T04:20:41.202Z,70.00
2017-11-03T04:23:07.458Z,70.00
2017-11-03T04:25:33.758Z,69.80
2017-11-03T04:28:00.086Z,70.80
2017-11-03T04:30:26.403Z,70.20
2017-11-03T04:32:52.698Z,71.20
2017-11-03T04:35:20.298Z,71.20
2017-11-03T04:37:46.559Z,71.00
2017-11-03T04:40:12.859Z,70.80
2017-11-03T04:42:39.163Z,70.10
2017-11-03T04:45:05.452Z,70.80
2017-11-03T04:47:31.762Z,69.60
2017-11-03T04:49:58.047Z,70.10
2017-11-03T04:52:25.074Z,69.50
2017-11-03T04:54:51.333Z,69.20
2017-11-03T04:57:17.627Z,69.00
2017-11-03T04:59:44.697Z,68.50
2017-11-03T05:02:10.967Z,68.50
2017-11-03T05:04:37.265Z,68.60
2017-11-03T05:07:03.543Z,69.60
2017-11-03T05:09:29.817Z,69.10
2017-11-03T05:11:56.097Z,68.70
2017-11-03T05:14:22.403Z,68.80
2017-11-03T05:16:48.679Z,69.10
2017-11-03T05:19:15.726Z,69.10
2017-11-03T05:21:42.747Z,69.10
2017-11-03T05:24:09.038Z,69.70
2017-11-03T05:26:35.342Z,68.80
2017-11-03T05:29:01.635Z,68.80
2017-11-03T05:31:27.919Z,69.00
2017-11-03T05:33:54.186Z,68.40
2017-11-03T05:36:20.496Z,67.90
2017-11-03T05:38:46.799Z,70.20
2017-11-03T05:41:13.098Z,68.80
2017-11-03T05:43:40.130Z,68.80
2017-11-03T05:46:06.419Z,68.80
2017-11-03T05:48:32.702Z,68.70
2017-11-03T05:50:59.739Z,69.30
2017-11-03T05:53:26.792Z,68.90
2017-11-03T05:55:53.066Z,69.10
2017-11-03T05:58:19.374Z,68.60
2017-11-03T06:00:45.668Z,69.40
2017-11-03T06:03:11.967Z,68.40
2017-11-03T06:05:38.250Z,68.30
2017-11-03T06:08:05.306Z,69.20
2017-11-03T06:10:31.566Z,69.20
2017-11-03T06:12:57.847Z,69.50
2017-11-03T06:15:24.141Z,69.00
2017-11-03T06:17:50.442Z,70.10
2017-11-03T06:20:16.738Z,68.60
2017-11-03T06:22:43.026Z,67.70
2017-11-03T06:25:10.114Z,67.30
2017-11-03T06:27:37.150Z,66.40
2017-11-03T06:30:03.475Z,66.40
2017-11-03T06:32:29.742Z,68.00
2017-11-03T06:34:56.015Z,67.00
2017-11-03T06:37:22.356Z,66.80
2017-11-03T06:39:49.473Z,67.60
2017-11-03T06:42:15.788Z,67.50
2017-11-03T06:44:42.162Z,68.00
2017-11-03T06:47:08.487Z,67.40
2017-11-03T06:49:35.534Z,66.80
2017-11-03T06:52:02.580Z,67.50
2017-11-03T06:54:29.625Z,67.30
2017-11-03T06:56:56.720Z,66.50
2017-11-03T06:59:23.055Z,66.30
2017-11-03T07:01:49.350Z,67.80
2017-11-03T07:04:15.669Z,67.40
2017-11-03T07:06:41.987Z,66.60
2017-11-03T07:09:09.038Z,66.30
2017-11-03T07:11:36.067Z,68.60
2017-11-03T07:14:03.112Z,67.90
2017-11-03T07:16:29.418Z,67.80
2017-11-03T07:18:55.737Z,67.00
2017-11-03T07:21:22.062Z,66.90
2017-11-03T07:23:48.422Z,66.30
2017-11-03T07:26:14.803Z,67.10
2017-11-03T07:28:41.218Z,66.70
2017-11-03T07:31:07.587Z,66.30
2017-11-03T07:33:33.932Z,66.40
2017-11-03T07:36:00.196Z,67.10
2017-11-03T07:38:27.238Z,66.70
2017-11-03T07:40:54.255Z,66.30
2017-11-03T07:43:20.545Z,66.30
2017-11-03T07:45:46.826Z,66.50
2017-11-03T07:48:13.152Z,66.10
2017-11-03T07:50:40.207Z,66.20
2017-11-03T07:53:07.242Z,66.20
2017-11-03T07:55:33.511Z,66.10
2017-11-03T07:57:59.819Z,67.30
2017-11-03T08:00:26.846Z,67.20
2017-11-03T08:02:53.134Z,67.20
2017-11-03T08:05:19.395Z,67.70
2017-11-03T08:07:45.719Z,67.70
2017-11-03T08:10:11.998Z,68.20
2017-11-03T08:12:38.327Z,69.40
2017-11-03T08:15:05.710Z,68.90
2017-11-03T08:17:31.982Z,68.50
2017-11-03T08:19:59.025Z,67.80
2017-11-03T08:22:25.308Z,67.70
2017-11-03T08:24:51.574Z,68.10
2017-11-03T08:27:17.843Z,67.10
2017-11-03T08:29:44.128Z,68.00
2017-11-03T08:32:10.427Z,68.90
2017-11-03T08:34:36.754Z,69.90
2017-11-03T08:37:03.046Z,68.40
2017-11-03T08:39:30.070Z,67.60
2017-11-03T08:41:56.347Z,67.60
2017-11-03T08:44:22.619Z,66.40
2017-11-03T08:46:48.908Z,66.40
2017-11-03T08:49:15.208Z,67.70
2017-11-03T08:51:41.507Z,67.40
2017-11-03T08:54:07.795Z,67.70
2017-11-03T08:56:34.098Z,67.70
2017-11-03T08:59:01.170Z,66.20
2017-11-03T09:01:27.494Z,66.10
2017-11-03T09:03:54.498Z,66.40
2017-11-03T09:06:21.590Z,65.90
2017-11-03T09:08:47.879Z,65.90
2017-11-03T09:11:14.913Z,66.50
2017-11-03T09:13:41.964Z,65.80
2017-11-03T09:16:09.030Z,64.60
2017-11-03T09:18:36.059Z,64.10
2017-11-03T09:21:03.169Z,64.50
2017-11-03T09:23:29.471Z,64.40
2017-11-03T09:25:55.754Z,63.70
2017-11-03T09:28:22.813Z,63.10
2017-11-03T09:30:49.828Z,63.00
2017-11-03T09:33:16.906Z,62.40
2017-11-03T09:35:43.944Z,63.50
2017-11-03T09:38:10.230Z,62.90
2017-11-03T09:40:36.524Z,61.80
2017-11-03T09:43:02.808Z,62.10
2017-11-03T09:45:30.129Z,61.30
2017-11-03T09:47:56.432Z,61.50
2017-11-03T09:50:23.449Z,62.30
2017-11-03T09:52:49.720Z,62.20
2017-11-03T09:55:16.742Z,63.10
2017-11-03T09:57:43.782Z,63.30
2017-11-03T10:00:10.815Z,63.50
2017-11-03T10:02:37.112Z,63.50
2017-11-03T10:05:03.400Z,63.70
2017-11-03T10:07:30.463Z,62.70
2017-11-03T10:09:56.778Z,62.70
2017-11-03T10:12:23.853Z,63.80
2017-11-03T10:14:50.187Z,63.90
2017-11-03T10:17:16.475Z,63.00
2017-11-03T10:19:43.555Z,60.20
2017-11-03T10:22:09.890Z,60.20
2017-11-03T10:24:36.194Z,60.00
2017-11-03T10:27:02.488Z,61.40
2017-11-03T10:29:28.824Z,61.70
2017-11-03T10:31:55.866Z,59.60
2017-11-03T10:34:22.198Z,60.30
2017-11-03T10:37:02.530Z,60.90
2017-11-03T10:39:28.835Z,61.70
2017-11-03T10:41:55.107Z,60.80
2017-11-03T10:44:21.395Z,60.80
2017-11-03T10:46:47.693Z,61.00
2017-11-03T10:49:13.988Z,60.30
2017-11-03T10:51:40.258Z,59.30
2017-11-03T10:54:06.551Z,60.00
2017-11-03T10:56:32.846Z,61.30
2017-11-03T10:58:59.145Z,60.10
2017-11-03T11:01:25.434Z,59.70
2017-11-03T11:03:52.455Z,59.40
2017-11-03T11:06:19.441Z,59.30
2017-11-03T11:08:46.482Z,58.60
2017-11-03T11:11:13.519Z,60.20
2017-11-03T11:13:40.634Z,60.90
2017-11-03T11:16:06.943Z,60.90
2017-11-03T11:18:33.247Z,60.50
2017-11-03T11:20:59.583Z,59.90
2017-11-03T11:23:25.882Z,60.10
2017-11-03T11:25:52.189Z,59.10
2017-11-03T11:28:18.493Z,59.70
2017-11-03T11:30:44.791Z,59.40
2017-11-03T11:33:11.076Z,58.10
2017-11-03T11:35:37.394Z,58.70
2017-11-03T11:38:03.680Z,59.30
2017-11-03T11:40:30.707Z,59.60
2017-11-03T11:42:57.789Z,59.80
2017-11-03T11:45:24.112Z,59.80
2017-11-03T11:47:50.420Z,58.90
2017-11-03T11:50:17.496Z,56.70
2017-11-03T11:52:43.803Z,56.50
2017-11-03T11:55:10.839Z,57.50
2017-11-03T11:57:37.878Z,57.30
2017-11-03T12:00:04.918Z,58.40
2017-11-03T12:02:31.970Z,58.90
2017-11-03T12:04:59.008Z,58.90
2017-11-03T12:07:26.053Z,59.20
2017-11-03T12:09:52.314Z,59.20
2017-11-03T12:12:18.591Z,58.50
2017-11-03T12:14:44.895Z,58.00
2017-11-03T12:17:11.174Z,57.10
2017-11-03T12:19:38.246Z,57.00
2017-11-03T12:22:04.540Z,56.90
2017-11-03T12:24:30.823Z,56.60
2017-11-03T12:26:57.847Z,53.60
2017-11-03T12:29:24.168Z,53.40
2017-11-03T12:31:51.187Z,54.00
2017-11-03T12:34:18.235Z,53.90
2017-11-03T12:36:45.304Z,53.40
2017-11-03T12:39:12.327Z,51.60
2017-11-03T12:41:39.387Z,51.60
2017-11-03T12:44:06.439Z,50.70
2017-11-03T12:46:32.735Z,50.70
2017-11-03T12:48:59.041Z,50.70
2017-11-03T12:51:25.383Z,52.70
2017-11-03T12:53:51.694Z,53.20
2017-11-03T12:56:17.982Z,51.20
2017-11-03T12:58:44.300Z,51.40
2017-11-03T13:01:11.343Z,51.30
2017-11-03T13:03:38.380Z,50.60
2017-11-03T13:06:04.691Z,50.60
2017-11-03T13:08:31.014Z,50.60
2017-11-03T13:10:57.310Z,50.40
2017-11-03T13:13:23.598Z,49.80
2017-11-03T13:15:49.876Z,49.00
2017-11-03T13:18:16.266Z,50.00
2017-11-03T13:20:42.583Z,49.20
2017-11-03T13:23:09.671Z,48.60
2017-11-03T13:25:35.963Z,48.40
2017-11-03T13:28:03.023Z,48.50
2017-11-03T13:30:29.339Z,48.40
2017-11-03T13:32:56.362Z,48.40
2017-11-03T13:35:22.666Z,48.30
2017-11-03T13:37:48.973Z,47.30
2017-11-03T13:40:15.292Z,48.00
2017-11-03T13:42:42.322Z,49.70
2017-11-03T13:45:08.595Z,49.70
2017-11-03T13:47:34.886Z,51.10
2017-11-03T13:50:02.023Z,51.10
2017-11-03T13:52:29.065Z,51.00
2017-11-03T13:54:55.345Z,51.00
2017-11-03T13:57:21.630Z,51.60
2017-11-03T13:59:47.915Z,52.10
2017-11-03T14:02:14.186Z,52.40
2017-11-03T14:04:40.470Z,51.30
2017-11-03T14:07:06.797Z,52.00
2017-11-03T14:09:33.090Z,50.90
2017-11-03T14:11:59.397Z,51.80
2017-11-03T14:14:26.466Z,50.50
2017-11-03T14:16:52.822Z,50.40
2017-11-03T14:19:19.110Z,50.70
2017-11-03T14:21:46.146Z,49.60
2017-11-03T14:24:13.190Z,49.60
2017-11-03T14:26:40.839Z,49.50
2017-11-03T14:29:07.224Z,49.50
2017-11-03T14:31:33.512Z,49.60
2017-11-03T14:33:59.798Z,48.90
2017-11-03T14:36:26.120Z,49.00
2017-11-03T14:38:52.483Z,49.10
2017-11-03T14:41:18.750Z,50.20
2017-11-03T14:43:45.065Z,48.70
2017-11-03T14:46:12.117Z,46.50
2017-11-03T14:48:38.413Z,46.20
2017-11-03T14:51:04.738Z,46.50
2017-11-03T14:53:31.063Z,46.30
2017-11-03T14:55:57.339Z,47.20
2017-11-03T14:58:24.383Z,47.30
2017-11-03T15:00:50.759Z,47.30
2017-11-03T15:03:17.082Z,48.40
2017-11-03T15:05:43.379Z,48.60
2017-11-03T15:08:10.406Z,49.20
2017-11-03T15:10:37.506Z,49.80
2017-11-03T15:13:03.798Z,49.70
2017-11-03T15:15:30.105Z,50.40
2017-11-03T15:17:58.229Z,50.00
2017-11-03T15:20:24.523Z,50.00
2017-11-03T15:22:50.833Z,50.20
2017-11-03T15:25:17.889Z,51.00
2017-11-03T15:27:44.976Z,50.90
2017-11-03T15:30:11.340Z,50.90
2017-11-03T15:32:37.634Z,51.00
2017-11-03T15:35:03.974Z,51.40
2017-11-03T15:37:30.346Z,51.50
2017-11-03T15:39:57.420Z,51.80
2017-11-03T15:42:23.726Z,51.40
2017-11-03T15:44:50.843Z,51.40
2017-11-03T15:47:17.202Z,51.30
2017-11-03T15:49:44.237Z,51.80
2017-11-03T15:52:10.518Z,51.80
2017-11-03T15:54:36.826Z,52.00
2017-11-03T15:57:03.213Z,52.00
2017-11-03T15:59:29.527Z,51.60
2017-11-03T16:01:55.810Z,52.60
2017-11-03T16:04:22.099Z,52.90
2017-11-03T16:06:48.385Z,52.60
2017-11-03T16:09:15.766Z,52.00
2017-11-03T16:11:42.072Z,52.10
2017-11-03T16:14:08.359Z,52.00
2017-11-03T16:16:35.390Z,52.90
2017-11-03T16:19:01.678Z,52.70
2017-11-03T16:21:29.195Z,54.20
2017-11-03T16:23:56.198Z,53.50
2017-11-03T16:26:22.494Z,53.40
2017-11-03T16:28:48.758Z,53.70
2017-11-03T16:31:15.057Z,52.90
2017-11-03T16:33:42.459Z,53.60
2017-11-03T16:36:08.716Z,54.40
2017-11-03T16:38:35.840Z,53.90
2017-11-03T16:41:02.142Z,53.90
2017-11-03T16:43:28.454Z,53.30
2017-11-03T16:45:55.367Z,53.40
2017-11-03T16:48:22.122Z,54.30
2017-11-03T16:50:48.457Z,53.40
2017-11-03T16:53:14.742Z,53.90
2017-11-03T16:55:41.782Z,53.40
2017-11-03T16:58:08.830Z,53.00
2017-11-03T17:00:35.131Z,53.60
2017-11-03T17:03:01.555Z,54.80
2017-11-03T17:05:27.867Z,54.90
2017-11-03T17:07:54.776Z,54.20
2017-11-03T17:10:21.824Z,53.90
2017-11-03T17:12:48.865Z,54.20
2017-11-03T17:15:15.874Z,54.50
2017-11-03T17:17:42.197Z,54.50
2017-11-03T17:20:08.494Z,54.30
2017-11-03T17:22:35.584Z,54.60
2017-11-03T17:25:01.978Z,54.60
2017-11-03T17:27:28.271Z,54.00
2017-11-03T17:29:55.362Z,53.20
2017-11-03T17:32:21.625Z,53.10
2017-11-03T17:34:47.922Z,53.70
2017-11-03T17:37:14.231Z,53.90
2017-11-03T17:39:40.510Z,53.10
2017-11-03T17:42:06.798Z,53.40
2017-11-03T17:44:33.114Z,54.00
2017-11-03T17:46:59.422Z,55.80
2017-11-03T17:49:26.460Z,54.40
2017-11-03T17:51:53.502Z,54.10
2017-11-03T17:54:20.523Z,54.40
2017-11-03T17:56:46.825Z,54.40
2017-11-03T17:59:13.859Z,54.40
2017-11-03T18:01:40.150Z,54.70
2017-11-03T18:04:07.320Z,56.00
2017-11-03T18:06:33.675Z,56.00
2017-11-03T18:08:59.971Z,55.90
2017-11-03T18:11:27.014Z,54.70
2017-11-03T18:13:53.324Z,54.60
2017-11-03T18:16:20.379Z,55.00
2017-11-03T18:18:46.678Z,54.80
2017-11-03T18:21:13.771Z,54.80
2017-11-03T18:23:40.080Z,55.00
2017-11-03T18:26:07.133Z,54.50
2017-11-03T18:28:34.182Z,54.90
2017-11-03T18:31:00.532Z,54.80
2017-11-03T18:33:26.837Z,54.40
2017-11-03T18:35:53.732Z,54.20
2017-11-03T18:38:19.843Z,54.10
2017-11-03T18:40:45.947Z,54.10
2017-11-03T18:43:12.034Z,54.40
2017-11-03T18:45:38.525Z,54.00
2017-11-03T18:48:04.618Z,53.60
2017-11-03T18:50:31.442Z,54.20
2017-11-03T18:52:57.573Z,54.10
2017-11-03T18:55:24.434Z,54.20
2017-11-03T18:57:50.503Z,54.20
2017-11-03T19:00:16.643Z,53.70
2017-11-03T19:02:42.721Z,53.70
2017-11-03T19:05:08.782Z,53.70
2017-11-03T19:07:34.892Z,53.30
2017-11-03T19:10:00.995Z,53.30
2017-11-03T19:12:27.071Z,53.20
2017-11-03T19:14:53.913Z,53.60
2017-11-03T19:17:19.983Z,53.50
2017-11-03T19:19:46.086Z,53.40
2017-11-03T19:22:12.175Z,52.90
2017-11-03T19:24:38.410Z,52.30
2017-11-03T19:27:04.514Z,53.40
2017-11-03T19:29:30.642Z,53.10
2017-11-03T19:31:56.711Z,53.10
2017-11-03T19:34:22.798Z,53.50
2017-11-03T19:36:48.876Z,53.20
2017-11-03T19:39:14.960Z,53.70
2017-11-03T19:41:41.771Z,53.50
2017-11-03T19:44:07.878Z,53.50
2017-11-03T19:46:33.954Z,54.00
2017-11-03T19:49:00.803Z,53.70
2017-11-03T19:51:27.626Z,54.10
2017-11-03T19:53:53.706Z,54.10
2017-11-03T19:56:19.778Z,54.60
2017-11-03T19:58:46.614Z,55.10
2017-11-03T20:01:12.696Z,55.10
2017-11-03T20:03:38.783Z,54.60
2017-11-03T20:06:04.884Z,55.00
2017-11-03T20:08:31.706Z,54.90
2017-11-03T20:10:57.822Z,54.70
2017-11-03T20:13:23.925Z,54.60
2017-11-03T20:15:50.053Z,55.00
2017-11-03T20:18:16.129Z,54.90
2017-11-03T20:20:42.950Z,54.90
2017-11-03T20:23:09.247Z,54.90
2017-11-03T20:25:35.549Z,55.20
2017-11-03T20:28:01.854Z,56.40
2017-11-03T20:30:28.894Z,56.70
2017-11-03T20:32:55.321Z,56.70
2017-11-03T20:35:22.367Z,56.30
2017-11-03T20:37:49.387Z,56.20
2017-11-03T20:40:15.691Z,56.10
2017-11-03T20:42:41.968Z,56.20
2017-11-03T20:45:09.015Z,56.50
2017-11-03T20:47:35.293Z,56.50
2017-11-03T20:50:01.584Z,56.90
2017-11-03T20:52:28.623Z,57.00
2017-11-03T20:54:55.670Z,57.20
2017-11-03T20:57:23.788Z,57.20
2017-11-03T20:59:50.100Z,57.10
2017-11-03T21:02:16.398Z,58.10
2017-11-03T21:04:43.419Z,58.50
2017-11-03T21:07:09.730Z,58.50
2017-11-03T21:09:36.015Z,58.40
2017-11-03T21:12:03.103Z,58.30
2017-11-03T21:14:29.495Z,58.20
2017-11-03T21:16:56.583Z,58.20
2017-11-03T21:19:23.006Z,58.20
2017-11-03T21:21:49.309Z,58.00
2017-11-03T21:24:15.644Z,58.00
2017-11-03T21:26:41.958Z,58.10
2017-11-03T21:29:08.979Z,58.50
2017-11-03T21:31:36.029Z,58.00
2017-11-03T21:34:02.440Z,57.90
2017-11-03T21:36:28.716Z,57.90
2017-11-03T21:38:55.796Z,57.50
2017-11-03T21:41:22.078Z,58.20
2017-11-03T21:43:48.462Z,58.40
2017-11-03T21:46:15.694Z,58.50
2017-11-03T21:48:44.587Z,57.90
2017-11-03T21:51:10.854Z,57.30
2017-11-03T21:53:37.922Z,58.00
2017-11-03T21:56:04.958Z,57.80
2017-11-03T21:58:31.359Z,57.60
2017-11-03T22:00:57.642Z,57.80
2017-11-03T22:03:25.952Z,57.50
2017-11-03T22:05:52.264Z,57.30
2017-11-03T22:08:18.543Z,57.50
2017-11-03T22:10:44.839Z,57.40
2017-11-03T22:13:11.135Z,57.60
2017-11-03T22:15:37.448Z,57.70
2017-11-03T22:18:04.467Z,57.50
2017-11-03T22:20:30.765Z,57.50
2017-11-03T22:22:57.039Z,57.60
2017-11-03T22:25:23.365Z,57.40
2017-11-03T22:27:49.667Z,57.60
2017-11-03T22:30:16.683Z,57.60
2017-11-03T22:32:43.030Z,57.50
2017-11-03T22:35:09.319Z,58.60
2017-11-03T22:37:35.618Z,58.40
2017-11-03T22:40:01.962Z,58.60
2017-11-03T22:42:28.998Z,58.00
2017-11-03T22:44:55.314Z,57.90
2017-11-03T22:47:23.453Z,59.90
2017-11-03T22:49:49.732Z,59.80
2017-11-03T22:52:16.045Z,59.40
2017-11-03T22:54:43.109Z,59.80
2017-11-03T22:57:09.452Z,59.80
2017-11-03T22:59:36.562Z,59.90
2017-11-03T23:02:02.910Z,59.90
2017-11-03T23:04:29.979Z,59.80
2017-11-03T23:06:57.034Z,60.30
2017-11-03T23:09:24.098Z,60.00
2017-11-03T23:11:50.391Z,60.00
2017-11-03T23:14:17.500Z,60.00
2017-11-03T23:16:43.808Z,60.00
2017-11-03T23:19:10.127Z,59.90
2017-11-03T23:21:36.451Z,59.90
2017-11-03T23:24:02.751Z,60.10
2017-11-03T23:26:29.017Z,59.90
2017-11-03T23:28:55.287Z,59.90
2017-11-03T23:31:21.577Z,59.70
2017-11-03T23:33:47.861Z,61.50
2017-11-03T23:36:14.921Z,61.30
2017-11-03T23:38:41.946Z,61.90
2017-11-03T23:41:08.238Z,61.80
2017-11-03T23:43:35.271Z,61.70
2017-11-03T23:46:01.562Z,61.70
2017-11-03T23:48:28.967Z,61.10
2017-11-03T23:50:55.271Z,61.60
2017-11-03T23:53:21.572Z,61.70
2017-11-03T23:55:48.608Z,61.90
2017-11-03T23:58:15.769Z,62.10
